createdAt,value
2018-05-18T00:00:03.546Z,11.03
2018-05-18T00:02:32.482Z,9.13
2018-05-18T00:05:02.102Z,8.57
2018-05-18T00:07:30.602Z,10.83
2018-05-18T00:09:59.862Z,7.97
2018-05-18T00:12:28.702Z,7.30
2018-05-18T00:14:57.561Z,8.83
2018-05-18T00:17:26.943Z,8.83
2018-05-18T00:19:56.082Z,10.63
2018-05-18T00:22:25.462Z,9.17
2018-05-18T00:24:54.603Z,8.67
2018-05-18T00:27:23.662Z,9.17
2018-05-18T00:29:52.941Z,9.40
2018-05-18T00:32:21.561Z,10.00
2018-05-18T00:34:50.821Z,11.07
2018-05-18T00:37:20.861Z,10.47
2018-05-18T00:39:50.097Z,10.25
2018-05-18T00:42:18.562Z,10.10
2018-05-18T00:44:47.821Z,12.17
2018-05-18T00:47:17.822Z,10.70
2018-05-18T00:49:46.442Z,11.57
2018-05-18T00:52:15.301Z,10.20
2018-05-18T00:54:44.382Z,11.70
2018-05-18T00:57:13.841Z,11.30
2018-05-18T00:59:43.342Z,11.68
2018-05-18T01:02:12.382Z,11.60
2018-05-18T01:04:41.541Z,10.40
2018-05-18T01:07:10.802Z,11.15
2018-05-18T01:09:40.301Z,10.50
2018-05-18T01:12:08.862Z,9.70
2018-05-18T01:14:38.042Z,9.27
2018-05-18T01:17:07.801Z,10.55
2018-05-18T01:19:38.082Z,12.30
2018-05-18T01:22:07.881Z,15.23
2018-05-18T01:24:37.081Z,26.98
2018-05-18T01:27:06.322Z,20.15
2018-05-18T01:29:35.582Z,17.90
2018-05-18T01:32:04.662Z,14.80
2018-05-18T01:34:33.722Z,15.77
2018-05-18T01:37:03.322Z,15.20
2018-05-18T01:39:32.041Z,15.02
2018-05-18T01:42:01.822Z,15.85
2018-05-18T01:44:31.082Z,15.17
2018-05-18T01:47:00.702Z,18.33
2018-05-18T01:49:29.582Z,14.98
2018-05-18T01:51:58.922Z,13.15
2018-05-18T01:54:27.562Z,13.95
2018-05-18T01:56:56.562Z,13.45
2018-05-18T01:59:26.041Z,13.23
2018-05-18T02:01:54.702Z,15.38
2018-05-18T02:04:23.043Z,12.70
2018-05-18T02:06:51.762Z,12.75
2018-05-18T02:09:21.521Z,11.98
2018-05-18T02:11:50.242Z,11.95
2018-05-18T02:14:18.742Z,11.82
2018-05-18T02:16:48.342Z,12.05
2018-05-18T02:19:18.001Z,12.35
2018-05-18T02:21:47.522Z,12.82
2018-05-18T02:24:16.847Z,11.15
2018-05-18T02:26:46.002Z,11.93
2018-05-18T02:29:15.003Z,12.50
2018-05-18T02:31:44.862Z,10.95
2018-05-18T02:34:14.001Z,11.55
2018-05-18T02:36:42.541Z,11.32
2018-05-18T02:39:11.286Z,10.05
2018-05-18T02:41:40.062Z,9.75
2018-05-18T02:44:09.741Z,10.52
2018-05-18T02:46:38.962Z,9.50
2018-05-18T02:49:07.602Z,14.32
2018-05-18T02:51:36.663Z,9.35
2018-05-18T02:54:06.042Z,10.55
2018-05-18T02:56:34.801Z,8.88
2018-05-18T02:59:04.461Z,10.00
2018-05-18T03:01:33.282Z,10.00
2018-05-18T03:04:02.183Z,10.10
2018-05-18T03:06:31.262Z,10.45
2018-05-18T03:08:59.982Z,8.57
2018-05-18T03:11:29.062Z,10.00
2018-05-18T03:13:58.042Z,8.77
2018-05-18T03:16:26.642Z,8.93
2018-05-18T03:18:56.021Z,8.98
2018-05-18T03:21:25.461Z,8.27
2018-05-18T03:23:54.122Z,7.45
2018-05-18T03:26:22.861Z,10.20
2018-05-18T03:28:52.361Z,7.72
2018-05-18T03:31:21.362Z,7.60
2018-05-18T03:33:50.622Z,8.25
2018-05-18T03:36:20.725Z,15.85
2018-05-18T03:38:50.661Z,10.93
2018-05-18T03:41:20.944Z,10.20
2018-05-18T03:43:50.703Z,13.43
2018-05-18T03:46:20.701Z,11.43
2018-05-18T03:48:49.721Z,10.85
2018-05-18T03:51:19.161Z,13.90
2018-05-18T03:53:48.341Z,12.55
2018-05-18T03:56:17.441Z,11.95
2018-05-18T03:58:46.261Z,11.95
2018-05-18T04:01:26.489Z,11.73
2018-05-18T04:04:06.261Z,12.55
2018-05-18T04:06:46.726Z,13.07
2018-05-18T04:09:16.461Z,18.37
2018-05-18T04:11:45.441Z,18.15
2018-05-18T04:14:14.142Z,15.02
2018-05-18T04:16:43.763Z,12.60
2018-05-18T04:19:12.521Z,11.20
2018-05-18T04:21:41.681Z,11.60
2018-05-18T04:24:10.761Z,11.00
2018-05-18T04:26:40.442Z,11.80
2018-05-18T04:29:09.681Z,12.85
2018-05-18T04:31:38.441Z,11.63
2018-05-18T04:34:07.245Z,11.25
2018-05-18T04:36:36.402Z,10.23
2018-05-18T04:39:07.821Z,10.75
2018-05-18T04:41:36.962Z,10.60
2018-05-18T04:44:06.961Z,14.95
2018-05-18T04:46:36.221Z,13.10
2018-05-18T04:49:05.202Z,11.25
2018-05-18T04:51:34.701Z,14.27
2018-05-18T04:54:03.682Z,13.23
2018-05-18T04:56:32.462Z,9.63
2018-05-18T04:59:02.183Z,12.02
2018-05-18T05:01:31.742Z,11.15
2018-05-18T05:04:00.542Z,11.12
2018-05-18T05:06:30.463Z,19.75
2018-05-18T05:08:59.402Z,12.50
2018-05-18T05:11:28.701Z,10.98
2018-05-18T05:13:57.705Z,13.80
2018-05-18T05:16:27.461Z,35.58
2018-05-18T05:18:56.982Z,14.32
2018-05-18T05:21:27.021Z,11.93
2018-05-18T05:23:56.501Z,10.57
2018-05-18T05:26:26.522Z,11.23
2018-05-18T05:28:56.242Z,8.90
2018-05-18T05:31:25.282Z,11.40
2018-05-18T05:33:54.521Z,12.43
2018-05-18T05:36:24.561Z,10.50
2018-05-18T05:38:53.685Z,12.03
2018-05-18T05:41:22.523Z,17.10
2018-05-18T05:43:53.302Z,16.33
2018-05-18T05:46:23.562Z,15.10
2018-05-18T05:48:53.642Z,14.87
2018-05-18T05:51:23.103Z,12.40
2018-05-18T05:53:54.003Z,15.33
2018-05-18T05:56:23.403Z,13.10
2018-05-18T05:58:53.341Z,14.70
2018-05-18T06:01:22.841Z,12.70
2018-05-18T06:03:52.422Z,13.60
2018-05-18T06:06:21.022Z,15.47
2018-05-18T06:08:50.143Z,16.03
2018-05-18T06:11:19.142Z,23.30
2018-05-18T06:13:48.382Z,14.87
2018-05-18T06:16:18.157Z,16.60
2018-05-18T06:18:47.904Z,16.53
2018-05-18T06:21:17.681Z,15.20
2018-05-18T06:23:46.761Z,15.20
2018-05-18T06:26:16.161Z,16.20
2018-05-18T06:28:45.502Z,14.37
2018-05-18T06:31:14.783Z,16.17
2018-05-18T06:33:43.161Z,13.60
2018-05-18T06:36:12.901Z,15.93
2018-05-18T06:38:42.443Z,13.93
2018-05-18T06:41:11.327Z,15.13
2018-05-18T06:43:40.501Z,18.30
2018-05-18T06:46:09.641Z,17.20
2018-05-18T06:48:37.961Z,19.60
2018-05-18T06:51:07.121Z,17.40
2018-05-18T06:53:36.400Z,16.90
2018-05-18T06:56:06.143Z,17.07
2018-05-18T06:58:35.062Z,17.17
2018-05-18T07:01:04.782Z,16.60
2018-05-18T07:03:33.888Z,16.10
2018-05-18T07:06:03.123Z,17.00
2018-05-18T07:08:32.202Z,15.33
2018-05-18T07:11:01.623Z,16.70
2018-05-18T07:13:30.122Z,14.67
2018-05-18T07:15:59.922Z,15.97
2018-05-18T07:18:28.370Z,15.90
2018-05-18T07:20:57.568Z,15.57
2018-05-18T07:23:26.647Z,15.93
2018-05-18T07:25:55.346Z,16.13
2018-05-18T07:28:24.650Z,15.80
2018-05-18T07:30:53.130Z,13.27
2018-05-18T07:33:22.071Z,14.30
2018-05-18T07:35:51.048Z,14.23
2018-05-18T07:38:19.819Z,19.03
2018-05-18T07:40:49.024Z,17.63
2018-05-18T07:43:17.532Z,16.13
2018-05-18T07:45:46.569Z,15.70
2018-05-18T07:48:14.969Z,13.80
2018-05-18T07:50:44.352Z,16.87
2018-05-18T07:53:13.128Z,12.23
2018-05-18T07:55:41.400Z,13.13
2018-05-18T07:58:10.962Z,16.57
2018-05-18T08:00:40.460Z,14.37
2018-05-18T08:03:08.960Z,15.70
2018-05-18T08:05:37.681Z,17.83
2018-05-18T08:08:06.692Z,16.83
2018-05-18T08:10:36.126Z,22.30
2018-05-18T08:13:05.421Z,17.30
2018-05-18T08:15:33.983Z,18.40
2018-05-18T08:18:02.502Z,19.63
2018-05-18T08:20:30.992Z,18.63
2018-05-18T08:23:00.881Z,19.93
2018-05-18T08:25:30.651Z,19.20
2018-05-18T08:27:59.931Z,20.53
2018-05-18T08:30:30.132Z,18.33
2018-05-18T08:32:58.652Z,17.60
2018-05-18T08:35:27.918Z,19.03
2018-05-18T08:37:56.455Z,17.40
2018-05-18T08:40:25.145Z,22.70
2018-05-18T08:42:54.635Z,23.40
2018-05-18T08:45:24.654Z,26.30
2018-05-18T08:47:53.900Z,25.50
2018-05-18T08:50:22.452Z,24.70
2018-05-18T08:52:51.113Z,25.37
2018-05-18T08:55:19.766Z,22.83
2018-05-18T08:57:48.845Z,24.80
2018-05-18T09:00:17.593Z,23.60
2018-05-18T09:02:46.680Z,22.33
2018-05-18T09:05:15.853Z,25.70
2018-05-18T09:07:44.580Z,23.27
2018-05-18T09:10:14.324Z,24.03
2018-05-18T09:12:42.541Z,22.33
2018-05-18T09:15:11.296Z,26.83
2018-05-18T09:17:39.796Z,26.27
2018-05-18T09:20:09.035Z,24.60
2018-05-18T09:22:37.617Z,25.60
2018-05-18T09:25:06.515Z,23.83
2018-05-18T09:27:35.687Z,27.77
2018-05-18T09:30:04.764Z,26.07
2018-05-18T09:32:33.982Z,23.73
2018-05-18T09:35:02.968Z,27.53
2018-05-18T09:37:32.475Z,28.83
2018-05-18T09:40:02.501Z,30.00
2018-05-18T09:42:32.039Z,29.00
2018-05-18T09:45:00.038Z,26.27
2018-05-18T09:47:28.562Z,28.17
2018-05-18T09:49:57.862Z,25.77
2018-05-18T09:52:26.782Z,26.63
2018-05-18T09:54:56.092Z,29.30
2018-05-18T09:57:25.721Z,27.40
2018-05-18T09:59:54.706Z,24.33
2018-05-18T10:02:23.066Z,23.90
2018-05-18T10:04:52.685Z,26.10
2018-05-18T10:07:22.485Z,30.03
2018-05-18T10:09:51.286Z,26.57
2018-05-18T10:12:20.077Z,28.00
2018-05-18T10:14:49.425Z,29.50
2018-05-18T10:17:18.645Z,26.50
2018-05-18T10:19:47.725Z,24.80
2018-05-18T10:22:16.673Z,28.23
2018-05-18T10:24:45.865Z,27.90
2018-05-18T10:27:14.645Z,27.27
2018-05-18T10:29:43.405Z,26.53
2018-05-18T10:32:12.125Z,27.30
2018-05-18T10:34:41.325Z,26.23
2018-05-18T10:37:10.105Z,27.33
2018-05-18T10:39:39.372Z,25.87
2018-05-18T10:42:08.635Z,30.03
2018-05-18T10:44:37.606Z,30.50
2018-05-18T10:47:06.866Z,28.87
2018-05-18T10:49:36.093Z,28.03
2018-05-18T10:52:05.366Z,28.80
2018-05-18T10:54:34.490Z,28.70
2018-05-18T10:57:03.347Z,25.13
2018-05-18T10:59:32.328Z,26.77
2018-05-18T11:02:01.334Z,27.40
2018-05-18T11:04:30.567Z,28.40
2018-05-18T11:06:59.364Z,27.60
2018-05-18T11:09:28.307Z,27.93
2018-05-18T11:11:57.038Z,30.73
2018-05-18T11:14:25.819Z,30.40
2018-05-18T11:16:55.038Z,29.53
2018-05-18T11:19:24.284Z,30.50
2018-05-18T11:21:53.522Z,32.30
2018-05-18T11:24:22.522Z,32.93
2018-05-18T11:26:51.682Z,30.70
2018-05-18T11:29:20.603Z,34.80
2018-05-18T11:31:50.022Z,37.70
2018-05-18T11:34:18.801Z,50.03
2018-05-18T11:36:47.579Z,37.67
2018-05-18T11:39:15.976Z,41.17
2018-05-18T11:41:45.804Z,34.77
2018-05-18T11:44:14.975Z,36.20
2018-05-18T11:46:44.736Z,31.00
2018-05-18T11:49:14.496Z,33.00
2018-05-18T11:51:43.235Z,34.77
2018-05-18T11:54:12.496Z,33.20
2018-05-18T11:56:41.535Z,34.70
2018-05-18T11:59:10.470Z,31.67
2018-05-18T12:01:39.215Z,35.17
2018-05-18T12:04:08.263Z,34.73
2018-05-18T12:06:37.192Z,33.67
2018-05-18T12:09:07.416Z,32.80
2018-05-18T12:11:36.455Z,34.70
2018-05-18T12:14:05.076Z,37.73
2018-05-18T12:16:34.216Z,33.20
2018-05-18T12:19:03.699Z,33.10
2018-05-18T12:21:33.456Z,30.47
2018-05-18T12:24:02.458Z,29.30
2018-05-18T12:26:31.019Z,33.13
2018-05-18T12:29:00.197Z,31.20
2018-05-18T12:31:30.207Z,30.93
2018-05-18T12:33:59.825Z,30.00
2018-05-18T12:36:29.305Z,30.70
2018-05-18T12:38:58.717Z,32.23
2018-05-18T12:41:27.996Z,29.90
2018-05-18T12:43:58.017Z,30.00
2018-05-18T12:46:27.376Z,26.20
2018-05-18T12:48:56.258Z,25.40
2018-05-18T12:51:25.216Z,23.77
2018-05-18T12:53:54.252Z,28.90
2018-05-18T12:56:23.459Z,20.03
2018-05-18T12:58:52.736Z,21.17
2018-05-18T13:01:21.437Z,19.50
2018-05-18T13:03:50.219Z,18.03
2018-05-18T13:06:20.215Z,20.13
2018-05-18T13:08:49.673Z,18.97
2018-05-18T13:11:18.457Z,18.40
2018-05-18T13:13:48.034Z,19.47
2018-05-18T13:16:16.693Z,21.23
2018-05-18T13:18:45.335Z,19.97
2018-05-18T13:21:14.783Z,19.77
2018-05-18T13:23:43.896Z,19.53
2018-05-18T13:26:12.663Z,18.53
2018-05-18T13:28:41.674Z,22.00
2018-05-18T13:31:10.255Z,21.13
2018-05-18T13:33:39.919Z,23.87
2018-05-18T13:36:09.661Z,21.13
2018-05-18T13:38:38.697Z,20.77
2018-05-18T13:41:07.645Z,21.93
2018-05-18T13:43:36.650Z,21.70
2018-05-18T13:46:05.368Z,20.97
2018-05-18T13:48:34.368Z,21.90
2018-05-18T13:51:03.627Z,21.30
2018-05-18T13:53:32.857Z,21.87
2018-05-18T13:56:01.868Z,19.97
2018-05-18T13:58:31.871Z,21.50
2018-05-18T14:01:00.614Z,21.80
2018-05-18T14:03:29.610Z,21.87
2018-05-18T14:05:59.118Z,22.23
2018-05-18T14:08:28.630Z,19.33
2018-05-18T14:10:57.883Z,23.73
2018-05-18T14:13:26.870Z,20.27
2018-05-18T14:15:56.110Z,18.17
2018-05-18T14:18:24.869Z,19.30
2018-05-18T14:20:55.195Z,22.23
2018-05-18T14:23:24.249Z,18.80
2018-05-18T14:25:52.543Z,20.07
2018-05-18T14:28:20.909Z,20.90
2018-05-18T14:30:49.810Z,20.80
2018-05-18T14:33:18.889Z,20.07
2018-05-18T14:35:47.825Z,19.07
2018-05-18T14:38:17.572Z,20.53
2018-05-18T14:40:46.550Z,20.87
2018-05-18T14:43:15.410Z,19.87
2018-05-18T14:45:43.897Z,19.87
2018-05-18T14:48:12.430Z,19.57
2018-05-18T14:50:41.749Z,21.47
2018-05-18T14:53:10.613Z,22.23
2018-05-18T14:55:39.593Z,21.63
2018-05-18T14:58:08.792Z,20.23
2018-05-18T15:00:37.468Z,19.27
2018-05-18T15:03:06.568Z,19.30
2018-05-18T15:05:35.765Z,19.70
2018-05-18T15:08:05.593Z,19.90
2018-05-18T15:10:34.793Z,18.77
2018-05-18T15:13:03.708Z,15.97
2018-05-18T15:15:32.708Z,18.73
2018-05-18T15:18:01.448Z,16.87
2018-05-18T15:20:30.389Z,19.10
2018-05-18T15:22:58.904Z,16.90
2018-05-18T15:25:28.170Z,18.30
2018-05-18T15:28:00.111Z,18.63
2018-05-18T15:30:28.651Z,19.50
2018-05-18T15:32:58.227Z,20.37
2018-05-18T15:35:27.468Z,17.43
2018-05-18T15:37:57.008Z,15.70
2018-05-18T15:40:25.869Z,16.13
2018-05-18T15:42:54.969Z,13.93
2018-05-18T15:45:23.967Z,14.53
2018-05-18T15:47:52.547Z,11.23
2018-05-18T15:50:20.947Z,12.47
2018-05-18T15:52:51.199Z,12.67
2018-05-18T15:55:20.289Z,12.63
2018-05-18T15:57:49.688Z,9.43
2018-05-18T16:00:18.448Z,9.27
2018-05-18T16:02:47.368Z,8.50
2018-05-18T16:05:16.707Z,9.67
2018-05-18T16:07:46.168Z,9.97
2018-05-18T16:10:15.069Z,9.07
2018-05-18T16:12:44.168Z,8.70
2018-05-18T16:15:13.087Z,7.90
2018-05-18T16:17:41.991Z,8.87
2018-05-18T16:20:10.389Z,13.17
2018-05-18T16:22:40.151Z,10.00
2018-05-18T16:25:09.888Z,10.00
2018-05-18T16:27:39.028Z,10.67
2018-05-18T16:30:08.649Z,10.90
2018-05-18T16:32:37.909Z,9.13
2018-05-18T16:35:07.030Z,9.10
2018-05-18T16:37:35.888Z,7.20
2018-05-18T16:40:04.648Z,8.30
2018-05-18T16:42:33.631Z,8.73
2018-05-18T16:45:03.628Z,9.70
2018-05-18T16:47:32.888Z,7.93
2018-05-18T16:50:01.893Z,8.57
2018-05-18T16:52:31.929Z,9.00
2018-05-18T16:55:01.429Z,10.70
2018-05-18T16:57:30.508Z,9.43
2018-05-18T16:59:59.908Z,10.03
2018-05-18T17:02:29.012Z,10.67
2018-05-18T17:04:57.868Z,9.00
2018-05-18T17:07:27.128Z,9.47
2018-05-18T17:09:56.127Z,8.43
2018-05-18T17:12:25.170Z,7.80
2018-05-18T17:14:53.973Z,8.40
2018-05-18T17:17:23.109Z,10.47
2018-05-18T17:19:51.873Z,9.20
2018-05-18T17:22:21.948Z,8.57
2018-05-18T17:24:50.448Z,11.00
2018-05-18T17:27:18.908Z,10.10
2018-05-18T17:29:48.068Z,9.47
2018-05-18T17:32:17.327Z,12.00
2018-05-18T17:34:46.569Z,10.00
2018-05-18T17:37:15.688Z,9.10
2018-05-18T17:39:44.627Z,9.60
2018-05-18T17:42:13.591Z,8.10
2018-05-18T17:44:43.067Z,8.70
2018-05-18T17:47:12.567Z,7.80
2018-05-18T17:49:42.048Z,7.97
2018-05-18T17:52:10.607Z,7.90
2018-05-18T17:54:39.928Z,8.63
2018-05-18T17:57:09.308Z,9.20
2018-05-18T17:59:38.632Z,7.60
2018-05-18T18:02:07.548Z,8.87
2018-05-18T18:04:36.788Z,21.40
2018-05-18T18:07:05.150Z,8.40
2018-05-18T18:09:33.627Z,6.97
2018-05-18T18:12:01.829Z,8.23
2018-05-18T18:14:30.988Z,6.87
2018-05-18T18:17:00.030Z,7.70
2018-05-18T18:19:29.368Z,6.90
2018-05-18T18:21:58.968Z,6.70
2018-05-18T18:24:27.968Z,8.00
2018-05-18T18:26:56.830Z,8.43
2018-05-18T18:29:25.707Z,7.97
2018-05-18T18:31:54.527Z,8.10
2018-05-18T18:34:23.707Z,8.13
2018-05-18T18:36:52.527Z,9.40
2018-05-18T18:39:21.448Z,8.97
2018-05-18T18:41:50.501Z,10.57
2018-05-18T18:44:19.750Z,9.33
2018-05-18T18:46:48.927Z,7.80
2018-05-18T18:49:18.428Z,7.53
2018-05-18T18:51:47.748Z,7.67
2018-05-18T18:54:16.376Z,8.23
2018-05-18T18:56:45.263Z,8.97
2018-05-18T18:59:14.122Z,8.13
2018-05-18T19:01:43.123Z,8.20
2018-05-18T19:04:12.124Z,7.70
2018-05-18T19:06:41.370Z,11.63
2018-05-18T19:09:09.943Z,8.73
2018-05-18T19:11:38.423Z,8.20
2018-05-18T19:14:07.521Z,9.23
2018-05-18T19:16:36.661Z,11.73
2018-05-18T19:19:06.602Z,8.97
2018-05-18T19:21:35.583Z,9.10
2018-05-18T19:24:04.982Z,10.03
2018-05-18T19:26:33.830Z,8.83
2018-05-18T19:29:03.087Z,10.03
2018-05-18T19:31:32.586Z,10.27
2018-05-18T19:34:01.406Z,9.93
2018-05-18T19:36:30.854Z,8.57
2018-05-18T19:39:00.347Z,8.30
2018-05-18T19:41:29.090Z,7.50
2018-05-18T19:43:58.307Z,7.73
2018-05-18T19:46:27.306Z,7.63
2018-05-18T19:48:56.548Z,8.73
2018-05-18T19:51:25.547Z,7.23
2018-05-18T19:53:54.806Z,8.23
2018-05-18T19:56:24.008Z,9.47
2018-05-18T19:58:53.355Z,7.73
2018-05-18T20:01:22.310Z,10.60
2018-05-18T20:03:52.087Z,10.37
2018-05-18T20:06:21.051Z,8.80
2018-05-18T20:08:50.047Z,7.37
2018-05-18T20:11:18.667Z,7.17
2018-05-18T20:13:46.987Z,7.90
2018-05-18T20:16:16.261Z,8.77
2018-05-18T20:18:45.767Z,8.47
2018-05-18T20:21:15.767Z,7.27
2018-05-18T20:23:44.886Z,8.03
2018-05-18T20:26:13.948Z,8.20
2018-05-18T20:28:43.286Z,8.40
2018-05-18T20:31:12.327Z,8.60
2018-05-18T20:33:41.507Z,10.87
2018-05-18T20:36:10.187Z,7.60
2018-05-18T20:38:39.488Z,8.47
2018-05-18T20:41:08.747Z,7.50
2018-05-18T20:43:37.968Z,8.63
2018-05-18T20:46:07.506Z,7.97
2018-05-18T20:48:37.013Z,9.57
2018-05-18T20:51:06.126Z,9.03
2018-05-18T20:53:35.686Z,8.17
2018-05-18T20:56:04.929Z,8.70
2018-05-18T20:58:34.819Z,8.90
2018-05-18T21:01:03.587Z,7.83
2018-05-18T21:03:32.549Z,10.53
2018-05-18T21:06:01.827Z,8.87
2018-05-18T21:08:31.788Z,8.90
2018-05-18T21:11:00.327Z,7.90
2018-05-18T21:13:29.487Z,8.87
2018-05-18T21:15:58.367Z,9.13
2018-05-18T21:18:27.098Z,8.73
2018-05-18T21:20:56.046Z,8.93
2018-05-18T21:23:25.287Z,9.07
2018-05-18T21:25:54.507Z,7.83
2018-05-18T21:28:23.447Z,16.77
2018-05-18T21:30:52.067Z,8.17
2018-05-18T21:33:21.186Z,9.40
2018-05-18T21:35:50.451Z,9.50
2018-05-18T21:38:19.427Z,9.30
2018-05-18T21:40:49.260Z,8.83
2018-05-18T21:43:18.287Z,8.50
2018-05-18T21:45:47.708Z,10.00
2018-05-18T21:48:16.527Z,9.80
2018-05-18T21:50:45.426Z,8.33
2018-05-18T21:53:14.847Z,8.93
2018-05-18T21:55:44.167Z,8.17
2018-05-18T21:58:12.648Z,10.13
2018-05-18T22:00:41.507Z,9.63
2018-05-18T22:03:10.647Z,9.40
2018-05-18T22:05:39.287Z,8.83
2018-05-18T22:08:08.107Z,8.10
2018-05-18T22:10:37.626Z,8.73
2018-05-18T22:13:07.127Z,8.97
2018-05-18T22:15:35.950Z,9.27
2018-05-18T22:18:05.367Z,10.00
2018-05-18T22:20:35.406Z,9.53
2018-05-18T22:23:04.108Z,9.77
2018-05-18T22:25:32.627Z,10.27
2018-05-18T22:28:02.127Z,10.83
2018-05-18T22:30:31.609Z,11.13
2018-05-18T22:33:00.386Z,73.27
2018-05-18T22:35:29.446Z,13.40
2018-05-18T22:37:58.347Z,11.90
2018-05-18T22:40:27.586Z,10.90
2018-05-18T22:42:56.827Z,11.07
2018-05-18T22:45:25.847Z,9.07
2018-05-18T22:47:55.667Z,10.63
2018-05-18T22:50:24.786Z,11.30
2018-05-18T22:52:53.847Z,10.53
2018-05-18T22:55:23.348Z,11.20
2018-05-18T22:57:52.326Z,9.80
2018-05-18T23:00:29.847Z,10.23
2018-05-18T23:02:58.426Z,9.53
2018-05-18T23:05:27.187Z,8.20
2018-05-18T23:07:56.066Z,9.47
2018-05-18T23:10:25.108Z,8.40
2018-05-18T23:12:54.306Z,9.63
2018-05-18T23:15:23.466Z,8.53
2018-05-18T23:17:51.906Z,9.03
2018-05-18T23:20:21.206Z,8.90
2018-05-18T23:22:50.466Z,10.00
2018-05-18T23:25:20.226Z,13.37
2018-05-18T23:27:49.066Z,9.00
2018-05-18T23:30:18.027Z,8.30
2018-05-18T23:32:47.186Z,9.47
2018-05-18T23:35:15.907Z,9.60
2018-05-18T23:37:45.288Z,8.77
2018-05-18T23:40:14.188Z,10.67
2018-05-18T23:42:44.147Z,11.87
2018-05-18T23:45:13.446Z,8.93
2018-05-18T23:47:43.106Z,8.63
2018-05-18T23:50:12.707Z,8.23
2018-05-18T23:52:42.726Z,10.33
2018-05-18T23:55:11.987Z,9.57
2018-05-18T23:57:41.305Z,14.00
